sensor_id;sensor_type;location;lat;lon;timestamp;temperature;humidity
4757;DHT22;2392;52.578;13.426;2022-08-05T00:00:07;27.20;77.10
4757;DHT22;2392;52.578;13.426;2022-08-05T00:02:36;27.10;77.40
4757;DHT22;2392;52.578;13.426;2022-08-05T00:05:04;27.10;77.50
4757;DHT22;2392;52.578;13.426;2022-08-05T00:07:31;27.10;77.50
4757;DHT22;2392;52.578;13.426;2022-08-05T00:09:58;27.10;77.50
4757;DHT22;2392;52.578;13.426;2022-08-05T00:12:24;27.00;77.90
4757;DHT22;2392;52.578;13.426;2022-08-05T00:14:52;27.00;78.20
4757;DHT22;2392;52.578;13.426;2022-08-05T00:17:18;27.00;78.20
4757;DHT22;2392;52.578;13.426;2022-08-05T00:19:47;26.90;78.30
4757;DHT22;2392;52.578;13.426;2022-08-05T00:22:14;26.90;78.90
4757;DHT22;2392;52.578;13.426;2022-08-05T00:24:41;26.90;78.80
4757;DHT22;2392;52.578;13.426;2022-08-05T00:27:08;26.80;78.60
4757;DHT22;2392;52.578;13.426;2022-08-05T00:29:34;26.80;78.70
4757;DHT22;2392;52.578;13.426;2022-08-05T00:32:01;26.80;79.10
4757;DHT22;2392;52.578;13.426;2022-08-05T00:34:30;26.80;79.30
4757;DHT22;2392;52.578;13.426;2022-08-05T00:36:58;26.70;79.60
4757;DHT22;2392;52.578;13.426;2022-08-05T00:39:25;26.70;79.80
4757;DHT22;2392;52.578;13.426;2022-08-05T00:41:52;26.60;80.10
4757;DHT22;2392;52.578;13.426;2022-08-05T00:44:19;26.60;80.20
4757;DHT22;2392;52.578;13.426;2022-08-05T00:46:45;26.50;80.20
4757;DHT22;2392;52.578;13.426;2022-08-05T00:49:12;26.50;80.50
4757;DHT22;2392;52.578;13.426;2022-08-05T00:51:43;26.40;80.90
4757;DHT22;2392;52.578;13.426;2022-08-05T00:54:12;26.40;80.90
4757;DHT22;2392;52.578;13.426;2022-08-05T00:56:39;26.40;81.20
4757;DHT22;2392;52.578;13.426;2022-08-05T00:59:06;26.40;81.30
4757;DHT22;2392;52.578;13.426;2022-08-05T01:01:33;26.30;81.10
4757;DHT22;2392;52.578;13.426;2022-08-05T01:04:03;26.30;81.20
4757;DHT22;2392;52.578;13.426;2022-08-05T01:06:30;26.20;81.40
4757;DHT22;2392;52.578;13.426;2022-08-05T01:08:57;26.20;81.50
4757;DHT22;2392;52.578;13.426;2022-08-05T01:11:31;26.20;81.10
4757;DHT22;2392;52.578;13.426;2022-08-05T01:14:04;26.10;81.20
4757;DHT22;2392;52.578;13.426;2022-08-05T01:16:37;26.10;81.60
4757;DHT22;2392;52.578;13.426;2022-08-05T01:19:14;26.00;81.90
4757;DHT22;2392;52.578;13.426;2022-08-05T01:21:54;26.00;82.10
4757;DHT22;2392;52.578;13.426;2022-08-05T01:24:50;25.90;82.30
4757;DHT22;2392;52.578;13.426;2022-08-05T01:27:52;25.90;82.50
4757;DHT22;2392;52.578;13.426;2022-08-05T01:30:28;25.70;83.00
4757;DHT22;2392;52.578;13.426;2022-08-05T01:32:58;25.70;83.60
4757;DHT22;2392;52.578;13.426;2022-08-05T01:35:29;25.60;83.90
4757;DHT22;2392;52.578;13.426;2022-08-05T01:37:58;25.50;84.50
4757;DHT22;2392;52.578;13.426;2022-08-05T01:40:28;25.40;85.20
4757;DHT22;2392;52.578;13.426;2022-08-05T01:42:59;25.40;85.60
4757;DHT22;2392;52.578;13.426;2022-08-05T01:45:28;25.30;86.10
4757;DHT22;2392;52.578;13.426;2022-08-05T01:47:56;25.30;86.60
4757;DHT22;2392;52.578;13.426;2022-08-05T01:50:27;25.20;87.00
4757;DHT22;2392;52.578;13.426;2022-08-05T01:52:57;25.10;87.30
4757;DHT22;2392;52.578;13.426;2022-08-05T01:55:27;25.10;87.70
4757;DHT22;2392;52.578;13.426;2022-08-05T01:57:58;25.10;88.10
4757;DHT22;2392;52.578;13.426;2022-08-05T02:00:25;25.10;88.40
4757;DHT22;2392;52.578;13.426;2022-08-05T02:02:55;25.00;88.70
4757;DHT22;2392;52.578;13.426;2022-08-05T02:05:28;25.00;89.10
4757;DHT22;2392;52.578;13.426;2022-08-05T02:07:55;24.90;89.40
4757;DHT22;2392;52.578;13.426;2022-08-05T02:10:24;24.80;89.70
4757;DHT22;2392;52.578;13.426;2022-08-05T02:12:54;24.80;90.00
4757;DHT22;2392;52.578;13.426;2022-08-05T02:15:25;24.80;90.10
4757;DHT22;2392;52.578;13.426;2022-08-05T02:17:58;24.70;90.20
4757;DHT22;2392;52.578;13.426;2022-08-05T02:20:32;24.70;90.20
4757;DHT22;2392;52.578;13.426;2022-08-05T02:23:04;24.70;90.40
4757;DHT22;2392;52.578;13.426;2022-08-05T02:25:34;24.70;90.50
4757;DHT22;2392;52.578;13.426;2022-08-05T02:28:02;24.70;90.60
4757;DHT22;2392;52.578;13.426;2022-08-05T02:30:36;24.60;90.60
4757;DHT22;2392;52.578;13.426;2022-08-05T02:33:04;24.60;90.70
4757;DHT22;2392;52.578;13.426;2022-08-05T02:35:34;24.60;90.90
4757;DHT22;2392;52.578;13.426;2022-08-05T02:38:02;24.60;91.00
4757;DHT22;2392;52.578;13.426;2022-08-05T02:40:30;24.60;91.10
4757;DHT22;2392;52.578;13.426;2022-08-05T02:42:58;24.60;91.10
4757;DHT22;2392;52.578;13.426;2022-08-05T02:45:26;24.60;91.10
4757;DHT22;2392;52.578;13.426;2022-08-05T02:48:01;24.60;91.30
4757;DHT22;2392;52.578;13.426;2022-08-05T02:50:29;24.60;91.40
4757;DHT22;2392;52.578;13.426;2022-08-05T02:52:56;24.50;91.50
4757;DHT22;2392;52.578;13.426;2022-08-05T02:55:25;24.50;91.60
4757;DHT22;2392;52.578;13.426;2022-08-05T02:57:53;24.50;91.70
4757;DHT22;2392;52.578;13.426;2022-08-05T03:00:21;24.50;91.80
4757;DHT22;2392;52.578;13.426;2022-08-05T03:02:48;24.40;91.80
4757;DHT22;2392;52.578;13.426;2022-08-05T03:05:18;24.40;92.00
4757;DHT22;2392;52.578;13.426;2022-08-05T03:07:45;24.40;92.10
4757;DHT22;2392;52.578;13.426;2022-08-05T03:10:14;24.40;92.00
4757;DHT22;2392;52.578;13.426;2022-08-05T03:12:42;24.40;92.10
4757;DHT22;2392;52.578;13.426;2022-08-05T03:15:10;24.40;92.30
4757;DHT22;2392;52.578;13.426;2022-08-05T03:17:37;24.40;92.30
4757;DHT22;2392;52.578;13.426;2022-08-05T03:20:05;24.40;92.40
4757;DHT22;2392;52.578;13.426;2022-08-05T03:22:33;24.40;92.40
4757;DHT22;2392;52.578;13.426;2022-08-05T03:25:00;24.40;92.50
4757;DHT22;2392;52.578;13.426;2022-08-05T03:27:28;24.30;92.50
4757;DHT22;2392;52.578;13.426;2022-08-05T03:29:57;24.30;92.50
4757;DHT22;2392;52.578;13.426;2022-08-05T03:32:24;24.30;92.60
4757;DHT22;2392;52.578;13.426;2022-08-05T03:34:51;24.30;92.70
4757;DHT22;2392;52.578;13.426;2022-08-05T03:37:19;24.30;92.70
4757;DHT22;2392;52.578;13.426;2022-08-05T03:39:56;24.30;92.80
4757;DHT22;2392;52.578;13.426;2022-08-05T03:42:23;24.30;92.90
4757;DHT22;2392;52.578;13.426;2022-08-05T03:44:51;24.30;92.90
4757;DHT22;2392;52.578;13.426;2022-08-05T03:47:18;24.30;93.10
4757;DHT22;2392;52.578;13.426;2022-08-05T03:49:45;24.30;93.20
4757;DHT22;2392;52.578;13.426;2022-08-05T03:52:18;24.20;93.20
4757;DHT22;2392;52.578;13.426;2022-08-05T03:54:53;24.20;93.30
4757;DHT22;2392;52.578;13.426;2022-08-05T03:57:25;24.20;93.40
4757;DHT22;2392;52.578;13.426;2022-08-05T03:59:56;24.20;93.50
4757;DHT22;2392;52.578;13.426;2022-08-05T04:02:27;24.20;93.60
4757;DHT22;2392;52.578;13.426;2022-08-05T04:04:56;24.20;93.70
4757;DHT22;2392;52.578;13.426;2022-08-05T04:07:24;24.20;93.80
4757;DHT22;2392;52.578;13.426;2022-08-05T04:09:52;24.20;93.80
4757;DHT22;2392;52.578;13.426;2022-08-05T04:12:20;24.20;94.00
4757;DHT22;2392;52.578;13.426;2022-08-05T04:14:49;24.20;94.00
4757;DHT22;2392;52.578;13.426;2022-08-05T04:17:16;24.20;94.00
4757;DHT22;2392;52.578;13.426;2022-08-05T04:19:45;24.20;94.10
4757;DHT22;2392;52.578;13.426;2022-08-05T04:22:13;24.20;94.20
4757;DHT22;2392;52.578;13.426;2022-08-05T04:24:41;24.20;94.20
4757;DHT22;2392;52.578;13.426;2022-08-05T04:27:09;24.20;94.30
4757;DHT22;2392;52.578;13.426;2022-08-05T04:29:41;24.20;94.50
4757;DHT22;2392;52.578;13.426;2022-08-05T04:32:09;24.20;94.50
4757;DHT22;2392;52.578;13.426;2022-08-05T04:34:36;24.30;94.60
4757;DHT22;2392;52.578;13.426;2022-08-05T04:37:03;24.30;94.70
4757;DHT22;2392;52.578;13.426;2022-08-05T04:39:31;24.30;94.70
4757;DHT22;2392;52.578;13.426;2022-08-05T04:41:59;24.30;94.80
4757;DHT22;2392;52.578;13.426;2022-08-05T04:44:26;24.30;94.90
4757;DHT22;2392;52.578;13.426;2022-08-05T04:46:52;24.30;94.90
4757;DHT22;2392;52.578;13.426;2022-08-05T04:49:21;24.30;94.90
4757;DHT22;2392;52.578;13.426;2022-08-05T04:51:48;24.30;94.90
4757;DHT22;2392;52.578;13.426;2022-08-05T04:54:15;24.40;95.00
4757;DHT22;2392;52.578;13.426;2022-08-05T04:56:43;24.40;95.10
4757;DHT22;2392;52.578;13.426;2022-08-05T04:59:10;24.40;95.00
4757;DHT22;2392;52.578;13.426;2022-08-05T05:01:37;24.50;95.00
4757;DHT22;2392;52.578;13.426;2022-08-05T05:04:04;24.50;95.00
4757;DHT22;2392;52.578;13.426;2022-08-05T05:06:32;24.50;95.10
4757;DHT22;2392;52.578;13.426;2022-08-05T05:08:59;24.60;95.00
4757;DHT22;2392;52.578;13.426;2022-08-05T05:11:26;24.70;95.10
4757;DHT22;2392;52.578;13.426;2022-08-05T05:13:53;24.70;95.20
4757;DHT22;2392;52.578;13.426;2022-08-05T05:16:20;24.70;95.30
4757;DHT22;2392;52.578;13.426;2022-08-05T05:18:47;24.70;95.30
4757;DHT22;2392;52.578;13.426;2022-08-05T05:21:14;24.70;95.40
4757;DHT22;2392;52.578;13.426;2022-08-05T05:23:43;24.70;95.80
4757;DHT22;2392;52.578;13.426;2022-08-05T05:26:10;24.80;95.60
4757;DHT22;2392;52.578;13.426;2022-08-05T05:28:37;24.80;95.50
4757;DHT22;2392;52.578;13.426;2022-08-05T05:31:04;24.80;95.70
4757;DHT22;2392;52.578;13.426;2022-08-05T05:33:31;24.90;95.80
4757;DHT22;2392;52.578;13.426;2022-08-05T05:35:57;24.90;95.90
4757;DHT22;2392;52.578;13.426;2022-08-05T05:38:24;24.90;95.90
4757;DHT22;2392;52.578;13.426;2022-08-05T05:40:53;24.90;96.00
4757;DHT22;2392;52.578;13.426;2022-08-05T05:43:22;24.90;96.10
4757;DHT22;2392;52.578;13.426;2022-08-05T05:45:49;24.90;96.10
4757;DHT22;2392;52.578;13.426;2022-08-05T05:48:15;24.90;96.20
4757;DHT22;2392;52.578;13.426;2022-08-05T05:50:42;24.90;96.20
4757;DHT22;2392;52.578;13.426;2022-08-05T05:53:10;24.90;96.30
4757;DHT22;2392;52.578;13.426;2022-08-05T05:55:38;24.90;96.40
4757;DHT22;2392;52.578;13.426;2022-08-05T05:58:06;25.00;96.50
4757;DHT22;2392;52.578;13.426;2022-08-05T06:00:33;25.00;96.40
4757;DHT22;2392;52.578;13.426;2022-08-05T06:03:00;25.10;96.50
4757;DHT22;2392;52.578;13.426;2022-08-05T06:05:28;25.10;96.50
4757;DHT22;2392;52.578;13.426;2022-08-05T06:07:55;25.10;96.50
4757;DHT22;2392;52.578;13.426;2022-08-05T06:10:22;25.10;96.60
4757;DHT22;2392;52.578;13.426;2022-08-05T06:12:49;25.20;96.60
4757;DHT22;2392;52.578;13.426;2022-08-05T06:15:17;25.10;96.50
4757;DHT22;2392;52.578;13.426;2022-08-05T06:17:44;25.20;96.50
4757;DHT22;2392;52.578;13.426;2022-08-05T06:20:11;25.20;96.50
4757;DHT22;2392;52.578;13.426;2022-08-05T06:22:38;25.20;96.50
4757;DHT22;2392;52.578;13.426;2022-08-05T06:25:05;25.20;96.60
4757;DHT22;2392;52.578;13.426;2022-08-05T06:27:33;25.10;96.70
4757;DHT22;2392;52.578;13.426;2022-08-05T06:30:00;25.10;96.90
4757;DHT22;2392;52.578;13.426;2022-08-05T06:32:28;25.10;97.00
4757;DHT22;2392;52.578;13.426;2022-08-05T06:34:56;25.00;97.30
4757;DHT22;2392;52.578;13.426;2022-08-05T06:37:24;25.00;97.70
4757;DHT22;2392;52.578;13.426;2022-08-05T06:39:54;24.90;98.00
4757;DHT22;2392;52.578;13.426;2022-08-05T06:42:21;24.80;98.20
4757;DHT22;2392;52.578;13.426;2022-08-05T06:44:48;24.80;98.50
4757;DHT22;2392;52.578;13.426;2022-08-05T06:47:15;24.90;98.70
4757;DHT22;2392;52.578;13.426;2022-08-05T06:49:43;24.90;98.90
4757;DHT22;2392;52.578;13.426;2022-08-05T06:52:10;24.90;98.80
4757;DHT22;2392;52.578;13.426;2022-08-05T06:54:37;25.00;98.80
4757;DHT22;2392;52.578;13.426;2022-08-05T06:57:04;25.00;99.00
4757;DHT22;2392;52.578;13.426;2022-08-05T06:59:31;25.00;99.10
4757;DHT22;2392;52.578;13.426;2022-08-05T07:01:58;25.10;99.00
4757;DHT22;2392;52.578;13.426;2022-08-05T07:04:25;25.20;99.00
4757;DHT22;2392;52.578;13.426;2022-08-05T07:06:53;25.30;98.30
4757;DHT22;2392;52.578;13.426;2022-08-05T07:09:21;25.40;98.50
4757;DHT22;2392;52.578;13.426;2022-08-05T07:11:49;25.40;98.50
4757;DHT22;2392;52.578;13.426;2022-08-05T07:14:17;25.40;98.30
4757;DHT22;2392;52.578;13.426;2022-08-05T07:17:02;25.40;98.10
4757;DHT22;2392;52.578;13.426;2022-08-05T07:19:30;25.50;98.20
4757;DHT22;2392;52.578;13.426;2022-08-05T07:21:59;25.60;98.10
4757;DHT22;2392;52.578;13.426;2022-08-05T07:24:25;25.70;98.30
4757;DHT22;2392;52.578;13.426;2022-08-05T07:26:52;25.70;97.90
4757;DHT22;2392;52.578;13.426;2022-08-05T07:29:19;25.80;97.90
4757;DHT22;2392;52.578;13.426;2022-08-05T07:31:46;25.80;98.20
4757;DHT22;2392;52.578;13.426;2022-08-05T07:34:13;25.90;98.20
4757;DHT22;2392;52.578;13.426;2022-08-05T07:36:41;25.90;98.30
4757;DHT22;2392;52.578;13.426;2022-08-05T07:39:09;25.80;98.10
4757;DHT22;2392;52.578;13.426;2022-08-05T07:41:36;25.80;98.20
4757;DHT22;2392;52.578;13.426;2022-08-05T07:44:04;25.70;98.40
4757;DHT22;2392;52.578;13.426;2022-08-05T07:46:32;25.60;98.70
4757;DHT22;2392;52.578;13.426;2022-08-05T07:49:00;25.60;98.70
4757;DHT22;2392;52.578;13.426;2022-08-05T07:51:27;25.50;99.00
4757;DHT22;2392;52.578;13.426;2022-08-05T07:53:54;25.40;99.10
4757;DHT22;2392;52.578;13.426;2022-08-05T07:56:23;25.30;98.80
4757;DHT22;2392;52.578;13.426;2022-08-05T07:58:50;25.40;98.90
4757;DHT22;2392;52.578;13.426;2022-08-05T08:01:17;25.40;98.80
4757;DHT22;2392;52.578;13.426;2022-08-05T08:03:45;25.40;98.70
4757;DHT22;2392;52.578;13.426;2022-08-05T08:06:12;25.40;98.40
4757;DHT22;2392;52.578;13.426;2022-08-05T08:08:39;25.40;98.40
4757;DHT22;2392;52.578;13.426;2022-08-05T08:11:06;25.40;98.40
4757;DHT22;2392;52.578;13.426;2022-08-05T08:13:34;25.40;98.10
4757;DHT22;2392;52.578;13.426;2022-08-05T08:16:01;25.40;98.20
4757;DHT22;2392;52.578;13.426;2022-08-05T08:18:28;25.40;98.00
4757;DHT22;2392;52.578;13.426;2022-08-05T08:20:55;25.40;98.00
4757;DHT22;2392;52.578;13.426;2022-08-05T08:23:22;25.40;98.00
4757;DHT22;2392;52.578;13.426;2022-08-05T08:25:49;25.40;98.20
4757;DHT22;2392;52.578;13.426;2022-08-05T08:28:16;25.40;98.50
4757;DHT22;2392;52.578;13.426;2022-08-05T08:30:44;25.40;98.20
4757;DHT22;2392;52.578;13.426;2022-08-05T08:33:11;25.50;97.90
4757;DHT22;2392;52.578;13.426;2022-08-05T08:35:38;25.60;97.50
4757;DHT22;2392;52.578;13.426;2022-08-05T08:38:05;25.70;97.20
4757;DHT22;2392;52.578;13.426;2022-08-05T08:40:33;25.70;97.10
4757;DHT22;2392;52.578;13.426;2022-08-05T08:43:00;25.70;97.00
4757;DHT22;2392;52.578;13.426;2022-08-05T08:45:29;25.60;97.10
4757;DHT22;2392;52.578;13.426;2022-08-05T08:47:59;25.60;97.20
4757;DHT22;2392;52.578;13.426;2022-08-05T08:50:29;25.60;97.20
4757;DHT22;2392;52.578;13.426;2022-08-05T08:53:01;25.50;97.20
4757;DHT22;2392;52.578;13.426;2022-08-05T08:55:29;25.50;97.40
4757;DHT22;2392;52.578;13.426;2022-08-05T08:57:57;25.50;97.60
4757;DHT22;2392;52.578;13.426;2022-08-05T09:00:24;25.40;97.50
4757;DHT22;2392;52.578;13.426;2022-08-05T09:02:52;25.40;98.30
4757;DHT22;2392;52.578;13.426;2022-08-05T09:05:21;25.30;98.00
4757;DHT22;2392;52.578;13.426;2022-08-05T09:07:50;25.30;98.10
4757;DHT22;2392;52.578;13.426;2022-08-05T09:10:17;25.30;98.80
4757;DHT22;2392;52.578;13.426;2022-08-05T09:12:44;25.30;98.70
4757;DHT22;2392;52.578;13.426;2022-08-05T09:15:11;25.20;99.60
4757;DHT22;2392;52.578;13.426;2022-08-05T09:17:39;25.10;99.40
4757;DHT22;2392;52.578;13.426;2022-08-05T09:20:07;25.10;99.90
4757;DHT22;2392;52.578;13.426;2022-08-05T09:23:09;25.10;99.60
4757;DHT22;2392;52.578;13.426;2022-08-05T09:25:38;25.20;99.90
4757;DHT22;2392;52.578;13.426;2022-08-05T09:28:10;25.20;99.90
4757;DHT22;2392;52.578;13.426;2022-08-05T09:30:41;25.30;99.90
4757;DHT22;2392;52.578;13.426;2022-08-05T09:33:09;25.30;99.90
4757;DHT22;2392;52.578;13.426;2022-08-05T09:35:36;25.30;99.90
4757;DHT22;2392;52.578;13.426;2022-08-05T09:38:05;25.40;99.90
4757;DHT22;2392;52.578;13.426;2022-08-05T09:40:35;25.40;99.90
4757;DHT22;2392;52.578;13.426;2022-08-05T09:43:04;25.40;99.90
4757;DHT22;2392;52.578;13.426;2022-08-05T09:45:40;25.30;99.90
4757;DHT22;2392;52.578;13.426;2022-08-05T09:48:21;25.20;99.90
4757;DHT22;2392;52.578;13.426;2022-08-05T09:50:51;25.20;99.90
4757;DHT22;2392;52.578;13.426;2022-08-05T09:53:19;25.10;99.90
4757;DHT22;2392;52.578;13.426;2022-08-05T09:55:50;25.10;99.90
4757;DHT22;2392;52.578;13.426;2022-08-05T09:58:17;25.10;99.90
4757;DHT22;2392;52.578;13.426;2022-08-05T10:00:58;25.20;99.90
4757;DHT22;2392;52.578;13.426;2022-08-05T10:03:26;25.30;99.90
4757;DHT22;2392;52.578;13.426;2022-08-05T10:06:04;25.40;99.90
4757;DHT22;2392;52.578;13.426;2022-08-05T10:08:32;25.40;99.90
4757;DHT22;2392;52.578;13.426;2022-08-05T10:11:03;25.40;99.90
4757;DHT22;2392;52.578;13.426;2022-08-05T10:13:35;25.40;99.90
4757;DHT22;2392;52.578;13.426;2022-08-05T10:16:02;25.40;99.90
4757;DHT22;2392;52.578;13.426;2022-08-05T10:18:30;25.40;99.90
4757;DHT22;2392;52.578;13.426;2022-08-05T10:20:59;25.40;99.90
4757;DHT22;2392;52.578;13.426;2022-08-05T10:23:28;25.30;99.90
4757;DHT22;2392;52.578;13.426;2022-08-05T10:25:56;25.30;99.90
4757;DHT22;2392;52.578;13.426;2022-08-05T10:28:24;25.20;99.90
4757;DHT22;2392;52.578;13.426;2022-08-05T10:30:52;25.20;99.90
4757;DHT22;2392;52.578;13.426;2022-08-05T10:33:19;25.10;99.90
4757;DHT22;2392;52.578;13.426;2022-08-05T10:35:48;25.10;99.90
4757;DHT22;2392;52.578;13.426;2022-08-05T10:38:17;25.10;99.90
4757;DHT22;2392;52.578;13.426;2022-08-05T10:40:53;25.10;99.90
4757;DHT22;2392;52.578;13.426;2022-08-05T10:43:34;25.00;99.90
4757;DHT22;2392;52.578;13.426;2022-08-05T10:46:04;24.90;99.90
4757;DHT22;2392;52.578;13.426;2022-08-05T10:48:34;24.80;99.90
4757;DHT22;2392;52.578;13.426;2022-08-05T10:51:04;24.70;99.90
4757;DHT22;2392;52.578;13.426;2022-08-05T10:53:39;24.70;99.90
4757;DHT22;2392;52.578;13.426;2022-08-05T10:56:08;24.70;99.90
4757;DHT22;2392;52.578;13.426;2022-08-05T10:58:47;24.60;99.90
4757;DHT22;2392;52.578;13.426;2022-08-05T11:01:15;24.60;99.90
4757;DHT22;2392;52.578;13.426;2022-08-05T11:04:05;25.00;99.90
4757;DHT22;2392;52.578;13.426;2022-08-05T11:06:34;25.70;99.90
4757;DHT22;2392;52.578;13.426;2022-08-05T11:09:21;26.00;99.90
4757;DHT22;2392;52.578;13.426;2022-08-05T11:11:49;26.10;99.90
4757;DHT22;2392;52.578;13.426;2022-08-05T11:14:26;26.00;99.90
4757;DHT22;2392;52.578;13.426;2022-08-05T11:17:27;26.00;99.90
4757;DHT22;2392;52.578;13.426;2022-08-05T11:19:55;25.90;99.90
4757;DHT22;2392;52.578;13.426;2022-08-05T11:22:40;25.80;99.90
4757;DHT22;2392;52.578;13.426;2022-08-05T11:25:27;26.00;99.90
4757;DHT22;2392;52.578;13.426;2022-08-05T11:27:55;26.90;99.90
4757;DHT22;2392;52.578;13.426;2022-08-05T11:30:23;28.10;99.90
4757;DHT22;2392;52.578;13.426;2022-08-05T11:32:50;29.60;99.90
4757;DHT22;2392;52.578;13.426;2022-08-05T11:35:53;30.80;97.90
4757;DHT22;2392;52.578;13.426;2022-08-05T11:38:50;31.20;95.60
4757;DHT22;2392;52.578;13.426;2022-08-05T11:41:20;30.60;95.80
4757;DHT22;2392;52.578;13.426;2022-08-05T11:43:55;30.00;95.80
4757;DHT22;2392;52.578;13.426;2022-08-05T11:46:28;29.70;96.50
4757;DHT22;2392;52.578;13.426;2022-08-05T11:48:55;29.40;96.70
4757;DHT22;2392;52.578;13.426;2022-08-05T11:51:23;29.10;96.70
4757;DHT22;2392;52.578;13.426;2022-08-05T11:53:50;28.80;97.20
4757;DHT22;2392;52.578;13.426;2022-08-05T11:56:17;28.30;97.60
4757;DHT22;2392;52.578;13.426;2022-08-05T11:58:46;28.00;97.90
4757;DHT22;2392;52.578;13.426;2022-08-05T12:01:14;27.90;98.40
4757;DHT22;2392;52.578;13.426;2022-08-05T12:03:44;28.00;97.90
4757;DHT22;2392;52.578;13.426;2022-08-05T12:06:13;28.00;98.30
4757;DHT22;2392;52.578;13.426;2022-08-05T12:08:41;28.10;98.60
4757;DHT22;2392;52.578;13.426;2022-08-05T12:11:09;28.10;98.30
4757;DHT22;2392;52.578;13.426;2022-08-05T12:13:37;28.20;98.50
4757;DHT22;2392;52.578;13.426;2022-08-05T12:16:08;28.20;98.60
4757;DHT22;2392;52.578;13.426;2022-08-05T12:18:35;28.30;98.60
4757;DHT22;2392;52.578;13.426;2022-08-05T12:21:13;28.40;98.00
4757;DHT22;2392;52.578;13.426;2022-08-05T12:23:51;28.50;98.10
4757;DHT22;2392;52.578;13.426;2022-08-05T12:26:18;28.70;97.40
4757;DHT22;2392;52.578;13.426;2022-08-05T12:28:45;28.80;96.90
4757;DHT22;2392;52.578;13.426;2022-08-05T12:31:13;28.70;96.70
4757;DHT22;2392;52.578;13.426;2022-08-05T12:33:41;28.70;96.90
4757;DHT22;2392;52.578;13.426;2022-08-05T12:36:09;28.60;96.40
4757;DHT22;2392;52.578;13.426;2022-08-05T12:38:38;28.60;96.30
4757;DHT22;2392;52.578;13.426;2022-08-05T12:41:07;28.60;95.90
4757;DHT22;2392;52.578;13.426;2022-08-05T12:43:46;28.60;95.10
4757;DHT22;2392;52.578;13.426;2022-08-05T12:46:20;28.50;95.80
4757;DHT22;2392;52.578;13.426;2022-08-05T12:48:58;28.50;95.40
4757;DHT22;2392;52.578;13.426;2022-08-05T12:51:26;28.60;95.50
4757;DHT22;2392;52.578;13.426;2022-08-05T12:54:01;28.60;95.80
4757;DHT22;2392;52.578;13.426;2022-08-05T12:56:29;28.60;95.60
4757;DHT22;2392;52.578;13.426;2022-08-05T12:59:13;28.60;95.00
4757;DHT22;2392;52.578;13.426;2022-08-05T13:01:41;28.60;95.10
4757;DHT22;2392;52.578;13.426;2022-08-05T13:04:09;28.60;95.80
4757;DHT22;2392;52.578;13.426;2022-08-05T13:06:38;28.60;95.70
4757;DHT22;2392;52.578;13.426;2022-08-05T13:09:08;28.60;95.80
4757;DHT22;2392;52.578;13.426;2022-08-05T13:11:38;28.50;95.80
4757;DHT22;2392;52.578;13.426;2022-08-05T13:14:10;28.60;96.00
4757;DHT22;2392;52.578;13.426;2022-08-05T13:16:48;28.60;95.90
4757;DHT22;2392;52.578;13.426;2022-08-05T13:19:15;28.50;95.60
4757;DHT22;2392;52.578;13.426;2022-08-05T13:21:45;28.40;95.70
4757;DHT22;2392;52.578;13.426;2022-08-05T13:24:14;28.30;95.90
4757;DHT22;2392;52.578;13.426;2022-08-05T13:26:42;28.20;95.90
4757;DHT22;2392;52.578;13.426;2022-08-05T13:29:09;28.20;96.10
4757;DHT22;2392;52.578;13.426;2022-08-05T13:31:35;28.20;96.80
4757;DHT22;2392;52.578;13.426;2022-08-05T13:34:02;28.20;96.50
4757;DHT22;2392;52.578;13.426;2022-08-05T13:36:30;28.30;96.80
4757;DHT22;2392;52.578;13.426;2022-08-05T13:38:57;28.30;96.20
4757;DHT22;2392;52.578;13.426;2022-08-05T13:41:26;28.40;95.70
4757;DHT22;2392;52.578;13.426;2022-08-05T13:43:53;28.50;95.60
4757;DHT22;2392;52.578;13.426;2022-08-05T13:46:20;28.60;95.40
4757;DHT22;2392;52.578;13.426;2022-08-05T13:48:47;28.70;95.40
4757;DHT22;2392;52.578;13.426;2022-08-05T13:51:14;28.80;95.40
4757;DHT22;2392;52.578;13.426;2022-08-05T13:53:42;28.70;95.50
4757;DHT22;2392;52.578;13.426;2022-08-05T13:56:09;28.80;95.70
4757;DHT22;2392;52.578;13.426;2022-08-05T13:58:37;28.70;95.70
4757;DHT22;2392;52.578;13.426;2022-08-05T14:01:04;28.60;96.10
4757;DHT22;2392;52.578;13.426;2022-08-05T14:03:31;28.40;96.10
4757;DHT22;2392;52.578;13.426;2022-08-05T14:05:58;28.30;96.40
4757;DHT22;2392;52.578;13.426;2022-08-05T14:08:24;28.20;96.80
4757;DHT22;2392;52.578;13.426;2022-08-05T14:10:51;28.10;97.10
4757;DHT22;2392;52.578;13.426;2022-08-05T14:13:18;28.00;97.50
4757;DHT22;2392;52.578;13.426;2022-08-05T14:15:46;28.10;97.50
4757;DHT22;2392;52.578;13.426;2022-08-05T14:18:13;28.20;98.30
4757;DHT22;2392;52.578;13.426;2022-08-05T14:20:40;28.30;97.80
4757;DHT22;2392;52.578;13.426;2022-08-05T14:23:07;28.30;97.30
4757;DHT22;2392;52.578;13.426;2022-08-05T14:25:34;28.30;97.50
4757;DHT22;2392;52.578;13.426;2022-08-05T14:28:01;28.30;97.80
4757;DHT22;2392;52.578;13.426;2022-08-05T14:30:27;28.30;97.40
4757;DHT22;2392;52.578;13.426;2022-08-05T14:32:56;28.30;97.50
4757;DHT22;2392;52.578;13.426;2022-08-05T14:35:23;28.30;97.50
4757;DHT22;2392;52.578;13.426;2022-08-05T14:37:50;28.20;97.40
4757;DHT22;2392;52.578;13.426;2022-08-05T14:40:17;28.20;97.40
4757;DHT22;2392;52.578;13.426;2022-08-05T14:42:44;28.10;97.50
4757;DHT22;2392;52.578;13.426;2022-08-05T14:45:11;28.00;97.70
4757;DHT22;2392;52.578;13.426;2022-08-05T14:47:38;27.90;97.70
4757;DHT22;2392;52.578;13.426;2022-08-05T14:50:07;27.90;97.70
4757;DHT22;2392;52.578;13.426;2022-08-05T14:52:33;27.80;97.70
4757;DHT22;2392;52.578;13.426;2022-08-05T14:55:00;27.70;97.80
4757;DHT22;2392;52.578;13.426;2022-08-05T14:57:27;27.60;97.90
4757;DHT22;2392;52.578;13.426;2022-08-05T14:59:54;27.50;98.20
4757;DHT22;2392;52.578;13.426;2022-08-05T15:02:21;27.50;98.40
4757;DHT22;2392;52.578;13.426;2022-08-05T15:04:48;27.40;98.80
4757;DHT22;2392;52.578;13.426;2022-08-05T15:07:16;27.20;98.90
4757;DHT22;2392;52.578;13.426;2022-08-05T15:09:43;27.10;99.10
4757;DHT22;2392;52.578;13.426;2022-08-05T15:12:10;27.00;99.30
4757;DHT22;2392;52.578;13.426;2022-08-05T15:14:37;26.90;99.30
4757;DHT22;2392;52.578;13.426;2022-08-05T15:17:04;26.80;99.60
4757;DHT22;2392;52.578;13.426;2022-08-05T15:19:31;26.70;99.70
4757;DHT22;2392;52.578;13.426;2022-08-05T15:21:58;26.60;99.80
4757;DHT22;2392;52.578;13.426;2022-08-05T15:24:27;26.60;99.90
4757;DHT22;2392;52.578;13.426;2022-08-05T15:26:54;26.50;99.70
4757;DHT22;2392;52.578;13.426;2022-08-05T15:29:21;26.40;99.70
4757;DHT22;2392;52.578;13.426;2022-08-05T15:31:47;26.40;99.80
4757;DHT22;2392;52.578;13.426;2022-08-05T15:34:14;26.30;99.90
4757;DHT22;2392;52.578;13.426;2022-08-05T15:36:41;26.20;99.90
4757;DHT22;2392;52.578;13.426;2022-08-05T15:39:08;26.20;99.90
4757;DHT22;2392;52.578;13.426;2022-08-05T15:41:36;26.20;99.90
4757;DHT22;2392;52.578;13.426;2022-08-05T15:44:03;26.20;99.90
4757;DHT22;2392;52.578;13.426;2022-08-05T15:46:30;26.10;99.90
4757;DHT22;2392;52.578;13.426;2022-08-05T15:48:57;25.90;99.90
4757;DHT22;2392;52.578;13.426;2022-08-05T15:51:25;25.70;99.90
4757;DHT22;2392;52.578;13.426;2022-08-05T15:53:52;25.70;99.90
4757;DHT22;2392;52.578;13.426;2022-08-05T15:56:19;25.60;99.90